Time;durP1;ratioP1;P1;durP2;ratioP2;P2;SDS_P1;SDS_P2;PMS_P1;PMS_P2;Temp;Humidity;BMP_temperature;BMP_pressure;BME280_temperature;BME280_humidity;BME280_pressure;Samples;Min_cycle;Max_cycle;Signal;HPM_P1;HPM_P2
2021/09/24 00:00:11;;;;;;;8.53;6.80;;;14.30;98.10;;;14.07;87.17;98394.88;5107341;27;20679;-83
2021/09/24 00:02:42;;;;;;;8.40;6.67;;;14.20;97.60;;;14.01;87.12;98399.75;5106741;27;20685;-83
2021/09/24 00:05:11;;;;;;;9.97;6.87;;;14.10;97.50;;;13.94;87.30;98407.25;5126335;27;20633;-83
2021/09/24 00:07:40;;;;;;;7.77;6.33;;;14.00;97.60;;;13.92;87.62;98400.44;5111818;27;20666;-83
2021/09/24 00:10:12;;;;;;;8.10;5.80;;;14.00;97.70;;;13.91;87.90;98396.19;5124892;27;20634;-83
2021/09/24 00:12:41;;;;;;;10.03;6.60;;;14.00;97.80;;;13.89;87.68;98388.44;5124214;27;20622;-83
2021/09/24 00:15:15;;;;;;;7.97;6.10;;;14.00;98.00;;;13.90;88.20;98390.06;5126071;27;20633;-83
2021/09/24 00:17:45;;;;;;;10.20;6.60;;;14.00;98.20;;;13.92;88.26;98387.34;5102145;27;20670;-83
2021/09/24 00:20:14;;;;;;;7.27;5.77;;;14.00;98.30;;;13.92;88.39;98389.97;5086252;28;20970;-83
2021/09/24 00:22:43;;;;;;;8.17;6.20;;;14.00;98.30;;;13.89;88.12;98395.44;5090108;27;20653;-83
2021/09/24 00:25:14;;;;;;;6.77;5.37;;;13.90;98.20;;;13.81;88.45;98403.06;5105119;27;20626;-83
2021/09/24 00:27:42;;;;;;;7.87;6.10;;;13.90;98.40;;;13.68;87.31;98405.78;5120909;27;20637;-83
2021/09/24 00:30:13;;;;;;;10.47;6.87;;;13.80;97.50;;;13.59;87.35;98408.28;5123761;27;20657;-83
2021/09/24 00:32:42;;;;;;;8.33;6.50;;;13.70;97.30;;;13.53;87.06;98403.50;5088284;27;20645;-83
2021/09/24 00:35:11;;;;;;;9.17;7.23;;;13.60;97.40;;;13.56;87.97;98399.78;5122333;27;21211;-83
2021/09/24 00:37:40;;;;;;;8.63;6.70;;;13.70;98.50;;;13.62;88.51;98401.94;5123577;27;20622;-83
2021/09/24 00:40:11;;;;;;;8.80;7.30;;;13.70;98.70;;;13.68;88.91;98404.94;5123638;27;20732;-83
2021/09/24 00:42:42;;;;;;;8.17;6.43;;;13.80;99.00;;;13.78;89.26;98398.06;5091209;27;20665;-83
2021/09/24 00:45:13;;;;;;;12.03;6.50;;;13.80;99.10;;;13.79;88.83;98403.19;5120718;27;20629;-83
2021/09/24 00:47:41;;;;;;;7.47;6.23;;;13.80;98.90;;;13.73;87.87;98406.25;5112644;27;20663;-83
2021/09/24 00:50:10;;;;;;;8.10;6.10;;;13.80;98.30;;;13.68;87.55;98397.06;5096961;27;20625;-83
2021/09/24 00:52:39;;;;;;;9.80;6.37;;;13.80;98.50;;;13.65;87.94;98402.53;5127075;27;20618;-83
2021/09/24 00:55:10;;;;;;;8.27;6.30;;;13.70;98.20;;;13.61;87.58;98397.69;5107816;27;20662;-83
2021/09/24 00:57:38;;;;;;;8.47;6.60;;;13.70;97.90;;;13.57;88.45;98396.22;5126709;27;20629;-83
2021/09/24 01:00:10;;;;;;;7.50;6.30;;;13.70;98.60;;;13.55;88.60;98391.09;5093542;27;20643;-83
2021/09/24 01:02:39;;;;;;;10.07;5.70;;;13.60;98.30;;;13.49;88.05;98391.56;5108198;27;20722;-83
2021/09/24 01:05:10;;;;;;;14.50;7.17;;;13.50;98.20;;;13.42;87.72;98392.97;5097137;27;20632;-83
2021/09/24 01:07:41;;;;;;;9.10;6.70;;;13.50;98.30;;;13.35;88.92;98385.66;5126225;27;21019;-83
2021/09/24 01:10:13;;;;;;;7.20;5.83;;;13.40;98.50;;;13.27;88.35;98386.22;5118948;27;20644;-83
2021/09/24 01:12:42;;;;;;;6.73;5.43;;;13.40;98.10;;;13.20;88.02;98386.84;5124287;27;20637;-83
2021/09/24 01:15:15;;;;;;;8.40;5.73;;;13.30;97.80;;;13.14;87.49;98392.53;5118701;27;20623;-83
2021/09/24 01:17:45;;;;;;;9.00;6.00;;;13.30;97.70;;;13.09;88.26;98381.53;5115100;27;20696;-83
2021/09/24 01:20:17;;;;;;;9.27;6.50;;;13.20;98.20;;;13.08;87.62;98376.41;5123600;27;21033;-83
2021/09/24 01:22:49;;;;;;;7.87;6.60;;;13.20;97.90;;;13.06;88.18;98381.75;5103374;27;20666;-83
2021/09/24 01:25:19;;;;;;;8.53;7.07;;;13.20;98.30;;;13.06;88.25;98376.50;5120954;27;20748;-83
2021/09/24 01:27:48;;;;;;;7.90;6.37;;;13.20;98.70;;;13.04;88.82;98380.22;5119427;27;20630;-83
2021/09/24 01:30:18;;;;;;;10.57;6.83;;;13.10;98.70;;;13.00;89.91;98379.59;5108418;27;20741;-83
2021/09/24 01:32:48;;;;;;;10.43;6.97;;;13.10;98.80;;;13.00;88.28;98369.09;5105500;27;20622;-83
2021/09/24 01:35:18;;;;;;;8.67;6.37;;;13.10;98.80;;;12.98;88.24;98362.34;5124982;27;20633;-83
2021/09/24 01:37:48;;;;;;;8.00;6.07;;;13.10;98.50;;;12.89;87.83;98366.44;5122677;27;20628;-83
2021/09/24 01:40:19;;;;;;;8.87;6.27;;;13.00;98.30;;;12.87;88.89;98359.66;5106929;27;21223;-83
2021/09/24 01:42:54;;;;;;;10.10;6.50;;;13.00;98.60;;;12.84;88.20;98368.56;5103353;27;20661;-83
2021/09/24 01:45:23;;;;;;;7.80;6.53;;;12.90;98.90;;;12.85;89.68;98365.03;5117892;27;20740;-83
2021/09/24 01:47:51;;;;;;;8.20;6.67;;;12.90;99.10;;;12.82;89.18;98367.88;5111373;27;20640;-83
2021/09/24 01:50:20;;;;;;;9.73;6.20;;;12.90;99.10;;;12.80;89.40;98374.13;5107731;28;20679;-83
2021/09/24 01:52:50;;;;;;;8.10;6.47;;;12.90;99.20;;;12.75;89.06;98371.81;5122463;27;20626;-83
2021/09/24 01:55:19;;;;;;;9.30;5.77;;;12.80;99.10;;;12.68;88.73;98378.44;5124251;27;20628;-83
2021/09/24 01:57:47;;;;;;;8.47;6.03;;;12.80;98.40;;;12.63;86.90;98371.03;5090929;27;20695;-83
2021/09/24 02:00:17;;;;;;;8.40;6.37;;;12.80;98.10;;;12.58;87.72;98370.53;5120780;27;20654;-83
2021/09/24 02:02:45;;;;;;;12.20;7.00;;;12.70;98.20;;;12.55;89.53;98360.28;5121052;27;20652;-83
2021/09/24 02:05:14;;;;;;;7.70;6.30;;;12.70;98.50;;;12.54;88.31;98363.84;5106071;28;20630;-83
2021/09/24 02:07:43;;;;;;;8.33;6.67;;;12.60;98.90;;;12.55;89.96;98362.91;5123905;27;20658;-83
2021/09/24 02:10:14;;;;;;;9.30;6.73;;;12.70;99.10;;;12.55;89.16;98360.28;5106274;28;20649;-83
2021/09/24 02:12:42;;;;;;;7.73;6.10;;;12.60;99.40;;;12.56;90.24;98351.50;5104490;28;20637;-83
2021/09/24 02:15:12;;;;;;;8.03;6.50;;;12.60;99.90;;;12.55;90.79;98355.06;5103347;28;20641;-83
2021/09/24 02:17:41;;;;;;;9.17;5.77;;;12.70;99.60;;;12.55;89.53;98357.66;5122583;28;20629;-83
2021/09/24 02:20:11;;;;;;;10.50;5.93;;;12.70;99.60;;;12.56;90.29;98351.50;5092827;28;20689;-83
2021/09/24 02:22:40;;;;;;;9.07;6.80;;;12.60;99.50;;;12.51;90.69;98354.44;5094181;28;21702;-83
2021/09/24 02:25:10;;;;;;;8.03;5.90;;;12.60;99.60;;;12.48;89.01;98356.44;5092904;28;20633;-83
2021/09/24 02:27:40;;;;;;;8.03;6.20;;;12.60;99.60;;;12.40;87.87;98361.38;5121543;28;20689;-83
2021/09/24 02:30:10;;;;;;;8.00;5.97;;;12.50;99.10;;;12.32;88.24;98367.16;5104446;28;20637;-83
2021/09/24 02:32:39;;;;;;;7.87;6.00;;;12.40;98.40;;;12.25;88.11;98365.94;5106803;28;20621;-83
2021/09/24 02:35:09;;;;;;;11.30;5.83;;;12.30;98.50;;;12.23;87.70;98369.59;5124997;28;20637;-83
2021/09/24 02:37:38;;;;;;;7.70;5.90;;;12.30;98.60;;;12.25;87.56;98368.53;5122742;28;20622;-83
2021/09/24 02:40:08;;;;;;;10.20;6.93;;;12.30;98.70;;;12.36;90.54;98365.19;5127338;28;20646;-83
2021/09/24 02:42:39;;;;;;;8.50;6.80;;;12.40;99.40;;;12.52;89.99;98370.97;5122906;28;20710;-83
2021/09/24 02:45:09;;;;;;;9.60;6.50;;;12.50;99.90;;;12.58;91.27;98367.91;5106345;28;20640;-83
2021/09/24 02:47:37;;;;;;;11.17;6.77;;;12.60;99.90;;;12.61;92.00;98360.66;5126561;27;20621;-83
2021/09/24 02:50:09;;;;;;;7.67;6.03;;;12.60;99.90;;;12.64;91.43;98370.91;5092428;28;21096;-83
2021/09/24 02:52:38;;;;;;;9.23;7.00;;;12.70;99.90;;;12.61;91.82;98368.53;5092501;28;20633;-83
2021/09/24 02:55:08;;;;;;;11.17;6.90;;;12.60;99.90;;;12.55;90.35;98365.50;5104380;28;21250;-83
2021/09/24 02:57:37;;;;;;;10.53;6.83;;;12.60;99.90;;;12.56;90.86;98362.78;5122196;28;20680;-83
2021/09/24 03:00:09;;;;;;;7.80;6.10;;;12.60;99.90;;;12.54;89.51;98369.06;5121979;28;20656;-83
2021/09/24 03:02:38;;;;;;;11.13;6.60;;;12.60;99.90;;;12.50;90.50;98368.47;5087087;28;20633;-83
2021/09/24 03:05:09;;;;;;;8.87;5.90;;;12.60;99.70;;;12.43;90.40;98358.53;5106635;28;20646;-83
2021/09/24 03:07:37;;;;;;;6.90;6.10;;;12.50;99.90;;;12.38;89.78;98358.03;5107547;28;20662;-83
2021/09/24 03:10:08;;;;;;;8.20;6.40;;;12.40;99.70;;;12.35;90.95;98353.84;5107742;28;20621;-83
2021/09/24 03:12:37;;;;;;;8.60;6.77;;;12.40;99.90;;;12.35;90.80;98356.47;5113260;28;20629;-83
2021/09/24 03:15:11;;;;;;;8.93;7.00;;;12.40;99.90;;;12.31;90.44;98362.03;5102618;28;21188;-83
2021/09/24 03:17:40;;;;;;;7.27;5.90;;;12.40;99.90;;;12.32;91.89;98366.31;5107695;27;20998;-83
2021/09/24 03:20:10;;;;;;;8.10;6.43;;;12.40;99.90;;;12.32;90.15;98361.09;5121301;27;20705;-83
2021/09/24 03:22:40;;;;;;;9.13;7.13;;;12.40;99.90;;;12.28;90.98;98362.25;5118494;28;20637;-83
2021/09/24 03:25:10;;;;;;;7.73;6.53;;;12.40;99.90;;;12.24;90.90;98360.81;5104479;28;20991;-83
2021/09/24 03:27:39;;;;;;;10.70;6.70;;;12.30;99.80;;;12.21;89.77;98358.41;5110389;28;20637;-82
2021/09/24 03:30:11;;;;;;;8.50;6.67;;;12.30;99.90;;;12.22;90.79;98348.78;5102547;28;20638;-83
2021/09/24 03:32:39;;;;;;;8.27;6.40;;;12.30;99.90;;;12.22;90.41;98352.22;5103789;27;20644;-83
2021/09/24 03:35:10;;;;;;;8.57;6.73;;;12.30;99.90;;;12.26;90.42;98358.91;5106804;27;20628;-82
2021/09/24 03:37:39;;;;;;;8.30;6.30;;;12.30;99.90;;;12.21;90.47;98350.56;5129238;27;20650;-83
2021/09/24 03:40:10;;;;;;;7.13;5.90;;;12.30;99.90;;;12.18;90.52;98352.53;5124604;27;21290;-83
2021/09/24 03:42:39;;;;;;;8.27;6.43;;;12.20;99.80;;;12.17;89.17;98356.13;5102042;27;20629;-83
2021/09/24 03:45:09;;;;;;;8.93;6.93;;;12.20;99.70;;;12.17;89.55;98354.31;5119063;27;20682;-83
2021/09/24 03:47:38;;;;;;;8.50;6.37;;;12.30;99.80;;;12.16;90.20;98352.66;5126495;27;20664;-83
2021/09/24 03:50:10;;;;;;;8.87;6.37;;;12.30;99.90;;;12.19;90.33;98351.59;5113599;27;20621;-83
2021/09/24 03:52:39;;;;;;;8.63;6.33;;;12.30;99.90;;;12.19;91.25;98352.44;5118112;27;21199;-83
2021/09/24 03:55:09;;;;;;;8.10;6.30;;;12.20;99.90;;;12.18;90.45;98353.41;5129065;27;20605;-83
2021/09/24 03:57:37;;;;;;;11.50;6.83;;;12.20;99.90;;;12.19;90.58;98352.44;5091714;27;20882;-83
2021/09/24 04:00:09;;;;;;;8.27;6.77;;;12.20;99.90;;;12.20;91.71;98348.06;5092427;27;20681;-83
2021/09/24 04:02:42;;;;;;;7.60;6.10;;;12.20;99.90;;;12.21;90.58;98344.47;5108365;27;20673;-83
2021/09/24 04:05:11;;;;;;;11.53;7.17;;;12.30;99.90;;;12.21;91.50;98345.34;5114766;27;20650;-83
2021/09/24 04:07:40;;;;;;;8.77;6.93;;;12.30;99.90;;;12.23;90.75;98351.28;5124237;27;20670;-82
2021/09/24 04:10:10;;;;;;;9.43;7.53;;;12.30;99.90;;;12.23;91.73;98348.66;5124141;27;20647;-83
2021/09/24 04:12:39;;;;;;;10.03;7.50;;;12.40;99.90;;;12.23;90.73;98355.69;5119994;27;20627;-83
2021/09/24 04:15:10;;;;;;;10.63;7.13;;;12.30;99.90;;;12.22;92.61;98359.22;5109121;27;20698;-83
2021/09/24 04:17:39;;;;;;;17.53;6.53;;;12.30;99.90;;;12.20;89.92;98359.34;5110886;27;20640;-83
2021/09/24 04:20:09;;;;;;;9.10;7.40;;;12.30;99.90;;;12.18;91.63;98355.16;5123663;27;21152;-82
2021/09/24 04:22:38;;;;;;;11.03;6.87;;;12.30;99.90;;;12.19;90.23;98360.28;5125792;27;20648;-82
2021/09/24 04:25:08;;;;;;;10.30;7.60;;;12.30;99.90;;;12.20;90.87;98361.97;5107592;27;21230;-83
2021/09/24 04:27:37;;;;;;;10.70;7.37;;;12.30;99.90;;;12.20;90.29;98372.41;5091318;27;20640;-83
2021/09/24 04:30:09;;;;;;;10.70;7.67;;;12.30;99.90;;;12.18;91.18;98361.25;5124850;27;21156;-83
2021/09/24 04:32:38;;;;;;;10.10;7.40;;;12.30;99.90;;;12.16;89.73;98365.72;5105050;27;21081;-83
2021/09/24 04:35:07;;;;;;;9.90;7.53;;;12.30;99.90;;;12.15;90.39;98364.06;5093858;27;20632;-83
2021/09/24 04:37:36;;;;;;;9.60;7.67;;;12.30;99.90;;;12.14;90.38;98364.19;5107586;27;20632;-83
2021/09/24 04:40:06;;;;;;;15.40;8.40;;;12.30;99.90;;;12.11;89.90;98365.22;5124165;27;20661;-83
2021/09/24 04:42:35;;;;;;;9.53;7.07;;;12.20;99.90;;;12.11;91.15;98356.53;5122711;27;20637;-83
2021/09/24 04:45:05;;;;;;;9.97;7.43;;;12.20;99.90;;;12.12;91.09;98358.19;5126661;27;20784;-83
2021/09/24 04:47:35;;;;;;;9.80;7.83;;;12.20;99.90;;;12.10;90.57;98363.53;5102670;27;20647;-83
2021/09/24 04:50:05;;;;;;;10.00;7.10;;;12.20;99.90;;;12.09;90.17;98361.03;5106926;27;20637;-83
2021/09/24 04:52:34;;;;;;;9.87;6.83;;;12.20;99.90;;;12.04;90.67;98363.13;5114421;27;20830;-83
2021/09/24 04:55:03;;;;;;;9.00;7.40;;;12.10;99.90;;;12.01;88.72;98365.97;5107569;28;21173;-83
2021/09/24 04:57:31;;;;;;;9.90;7.10;;;12.10;99.90;;;11.94;89.59;98373.41;5124234;27;20672;-83
2021/09/24 05:00:00;;;;;;;9.40;7.17;;;12.10;99.90;;;11.91;91.02;98371.00;5103564;27;21188;-83
2021/09/24 05:02:29;;;;;;;8.90;7.00;;;12.00;99.90;;;11.88;88.53;98367.78;5085370;27;20626;-83
2021/09/24 05:05:00;;;;;;;12.93;6.13;;;12.00;99.70;;;11.84;89.96;98363.69;5124314;27;20653;-83
2021/09/24 05:07:28;;;;;;;9.93;6.63;;;12.00;99.40;;;11.79;89.84;98368.41;5103757;28;21061;-83
2021/09/24 05:09:57;;;;;;;10.53;7.17;;;11.90;99.50;;;11.79;89.76;98365.78;5096973;28;20654;-83
2021/09/24 05:12:26;;;;;;;11.70;7.67;;;11.90;99.90;;;11.82;89.37;98369.03;5087919;28;20680;-83
2021/09/24 05:14:55;;;;;;;10.70;7.60;;;11.90;99.90;;;11.82;90.78;98374.25;5109926;27;20626;-83
2021/09/24 05:17:24;;;;;;;12.27;7.50;;;11.90;99.90;;;11.84;90.46;98376.75;5107337;27;20633;-83
2021/09/24 05:19:53;;;;;;;10.97;8.20;;;11.90;99.90;;;11.85;91.13;98375.81;5112656;28;20614;-83
2021/09/24 05:22:23;;;;;;;11.30;7.80;;;11.90;99.90;;;11.88;90.24;98373.81;5122768;27;21287;-83
2021/09/24 05:24:52;;;;;;;8.93;6.97;;;12.00;99.90;;;11.92;92.64;98370.06;5089890;27;21970;-83
2021/09/24 05:27:21;;;;;;;10.53;7.83;;;12.00;99.90;;;11.95;92.55;98380.31;5113946;27;21209;-83
2021/09/24 05:29:49;;;;;;;9.60;6.50;;;12.00;99.90;;;11.97;91.26;98381.03;5126350;27;20643;-82
2021/09/24 05:32:18;;;;;;;8.90;6.90;;;12.10;99.90;;;11.99;91.25;98379.13;5111596;27;20629;-82
2021/09/24 05:34:47;;;;;;;10.33;6.97;;;12.10;99.90;;;11.96;89.62;98376.75;5107768;27;20636;-83
2021/09/24 05:37:16;;;;;;;7.87;7.07;;;12.00;99.90;;;11.98;89.58;98381.84;5104513;27;20653;-82
2021/09/24 05:39:46;;;;;;;9.40;7.00;;;12.10;99.90;;;12.03;90.07;98380.59;5093344;28;20630;-82
2021/09/24 05:42:14;;;;;;;10.97;7.10;;;12.10;99.90;;;12.04;89.75;98381.44;5122244;27;20683;-82
2021/09/24 05:44:43;;;;;;;8.87;7.10;;;12.10;99.90;;;12.04;90.38;98377.06;5121780;27;20657;-83
2021/09/24 05:47:12;;;;;;;9.07;7.43;;;12.10;99.90;;;12.05;89.96;98378.72;5100831;28;20654;-82
2021/09/24 05:49:40;;;;;;;11.17;8.00;;;12.20;99.90;;;12.06;91.93;98380.41;5107185;27;20641;-83
2021/09/24 05:52:09;;;;;;;10.30;7.57;;;12.10;99.90;;;12.08;91.58;98378.50;5119426;27;20644;-83
2021/09/24 05:54:38;;;;;;;11.00;7.30;;;12.10;99.90;;;12.14;92.02;98388.53;5124982;27;20686;-82
2021/09/24 05:57:08;;;;;;;13.30;7.43;;;12.20;99.90;;;12.19;91.73;98388.22;5108331;27;20664;-82
2021/09/24 05:59:37;;;;;;;10.93;6.93;;;12.20;99.90;;;12.23;90.30;98385.28;5111000;28;20720;-82
2021/09/24 06:02:06;;;;;;;12.27;7.83;;;12.30;99.90;;;12.23;89.56;98387.88;5104455;28;20733;-82
2021/09/24 06:04:34;;;;;;;11.03;8.13;;;12.30;99.90;;;12.24;89.22;98387.78;5093421;27;20721;-83
2021/09/24 06:07:03;;;;;;;12.57;8.33;;;12.30;99.90;;;12.24;90.43;98398.25;5105168;28;20670;-83
2021/09/24 06:09:32;;;;;;;12.80;8.50;;;12.30;99.90;;;12.24;89.47;98394.81;5110697;28;20644;-83
2021/09/24 06:12:00;;;;;;;13.63;8.60;;;12.30;99.90;;;12.21;89.10;98396.78;5124791;28;20695;-83
2021/09/24 06:14:30;;;;;;;13.60;9.03;;;12.20;99.90;;;12.19;89.25;98404.72;5090171;28;20666;-83
2021/09/24 06:16:59;;;;;;;12.27;8.43;;;12.20;99.90;;;12.22;89.84;98404.50;5105225;28;20672;-83
2021/09/24 06:19:28;;;;;;;13.83;9.30;;;12.30;99.90;;;12.23;91.37;98407.03;5104729;28;20651;-83
2021/09/24 06:21:56;;;;;;;14.73;8.47;;;12.30;99.90;;;12.27;89.88;98413.72;5121881;28;21076;-83
2021/09/24 06:24:25;;;;;;;13.20;9.00;;;12.30;99.90;;;12.31;90.39;98412.56;5107401;28;20666;-83
2021/09/24 06:26:53;;;;;;;13.20;8.97;;;12.40;99.90;;;12.36;91.18;98422.72;5108881;28;20627;-83
2021/09/24 06:29:22;;;;;;;14.43;10.00;;;12.40;99.90;;;12.44;90.03;98415.16;5106380;28;21201;-83
2021/09/24 06:31:52;;;;;;;15.83;10.50;;;12.50;99.90;;;12.50;91.27;98425.19;5121293;28;21158;-83
2021/09/24 06:34:21;;;;;;;16.60;11.57;;;12.50;99.90;;;12.59;90.76;98419.31;5125340;28;20724;-83
2021/09/24 06:36:49;;;;;;;15.93;10.47;;;12.60;99.90;;;12.65;91.11;98411.84;5121691;28;20716;-83
2021/09/24 06:39:18;;;;;;;12.93;9.40;;;12.60;99.90;;;12.71;89.12;98420.09;5111821;28;21076;-83
2021/09/24 06:41:47;;;;;;;12.40;10.03;;;12.70;99.90;;;12.77;90.10;98417.03;5117486;28;20732;-83
2021/09/24 06:44:15;;;;;;;12.63;9.50;;;12.70;99.90;;;12.90;89.13;98424.88;5119789;28;20879;-83
2021/09/24 06:46:44;;;;;;;16.07;10.40;;;12.90;99.90;;;12.98;90.67;98417.31;5111632;28;20681;-85
2021/09/24 06:49:14;;;;;;;12.87;9.80;;;12.90;99.90;;;13.06;89.53;98415.78;5106130;28;20649;-84
2021/09/24 06:51:43;;;;;;;13.20;9.97;;;13.00;99.90;;;13.17;90.13;98415.00;5111037;28;20671;-83
2021/09/24 06:54:12;;;;;;;15.27;9.30;;;13.10;99.90;;;13.26;91.07;98423.88;5125129;28;20617;-83
2021/09/24 06:56:40;;;;;;;14.10;9.70;;;13.20;99.90;;;13.33;90.91;98421.63;5107224;28;20605;-83
2021/09/24 06:59:09;;;;;;;16.17;9.50;;;13.30;99.90;;;13.41;91.33;98427.13;5108430;28;21155;-83
2021/09/24 07:01:38;;;;;;;14.10;10.37;;;13.40;99.90;;;13.50;91.48;98422.06;5086354;28;20637;-84
2021/09/24 07:04:07;;;;;;;14.70;9.70;;;13.50;99.90;;;13.60;91.32;98422.19;5122541;27;21044;-84
2021/09/24 07:06:37;;;;;;;14.00;9.23;;;13.60;99.90;;;13.67;90.72;98434.72;5094159;27;21473;-83
2021/09/24 07:09:06;;;;;;;17.20;10.30;;;13.60;99.90;;;13.79;92.31;98433.81;5128079;27;20718;-83
2021/09/24 07:11:35;;;;;;;13.57;10.37;;;13.70;99.90;;;13.99;91.05;98438.38;5125881;27;20682;-83
2021/09/24 07:14:08;;;;;;;13.53;10.33;;;13.90;99.90;;;14.15;90.01;98439.75;5123401;27;20626;-83
2021/09/24 07:16:37;;;;;;;15.30;10.47;;;14.00;99.90;;;14.28;90.38;98443.06;5125599;27;20673;-83
2021/09/24 07:19:07;;;;;;;10.70;9.20;;;14.20;99.90;;;14.43;89.67;98441.88;5129000;27;21057;-83
2021/09/24 07:21:37;;;;;;;12.83;9.90;;;14.30;99.90;;;14.56;88.54;98443.44;5100875;27;20667;-83
2021/09/24 07:24:06;;;;;;;11.67;9.10;;;14.40;99.90;;;14.71;89.69;98448.31;5112647;27;20728;-83
2021/09/24 07:26:35;;;;;;;12.90;9.67;;;14.60;99.90;;;14.81;90.58;98440.56;5102534;27;20685;-83
2021/09/24 07:29:04;;;;;;;13.57;10.20;;;14.70;99.90;;;15.07;90.30;98437.50;5099449;27;20656;-83
2021/09/24 07:31:33;;;;;;;12.70;9.13;;;14.90;99.90;;;15.35;89.76;98439.56;5129171;27;21266;-83
2021/09/24 07:34:02;;;;;;;14.27;9.30;;;15.10;99.90;;;15.55;89.96;98441.41;5111640;27;20631;-83
2021/09/24 07:36:31;;;;;;;16.20;9.80;;;15.40;99.90;;;15.62;89.24;98443.38;5129521;27;21016;-83
2021/09/24 07:39:01;;;;;;;12.33;9.73;;;15.50;99.90;;;15.73;88.32;98446.81;5114182;27;20617;-83
2021/09/24 07:41:29;;;;;;;12.73;9.30;;;15.60;99.90;;;15.74;86.66;98451.13;5125027;27;20695;-83
2021/09/24 07:43:59;;;;;;;14.10;9.37;;;15.60;99.90;;;15.84;86.55;98443.28;5123243;27;21312;-83
2021/09/24 07:46:28;;;;;;;14.57;10.23;;;15.70;99.90;;;15.94;86.22;98449.47;5127759;27;21068;-83
2021/09/24 07:48:56;;;;;;;13.43;10.20;;;15.80;99.90;;;16.18;88.61;98442.97;5129794;27;20655;-83
2021/09/24 07:51:25;;;;;;;14.80;10.63;;;16.00;99.90;;;16.58;88.03;98457.84;5117958;27;20629;-83
2021/09/24 07:53:54;;;;;;;15.27;11.17;;;16.30;99.90;;;16.69;86.51;98455.97;5114574;27;20632;-83
2021/09/24 07:56:24;;;;;;;12.20;9.90;;;16.50;99.90;;;17.13;87.42;98450.25;5113949;27;20633;-83
2021/09/24 07:58:53;;;;;;;13.63;10.33;;;16.90;99.90;;;17.60;87.75;98460.88;5125353;27;20629;-83
2021/09/24 08:01:24;;;;;;;11.70;10.13;;;17.30;99.90;;;17.96;84.61;98461.00;5116510;27;20632;-83
2021/09/24 08:03:53;;;;;;;12.60;9.77;;;17.60;99.80;;;18.28;82.42;98459.72;5128989;27;20625;-83
2021/09/24 08:06:22;;;;;;;14.37;9.67;;;18.00;98.30;;;18.40;81.13;98468.31;5118748;27;20665;-83
2021/09/24 08:08:51;;;;;;;12.90;9.40;;;18.10;97.30;;;18.30;80.72;98462.22;5110934;27;21163;-83
2021/09/24 08:11:19;;;;;;;12.00;9.53;;;18.10;96.50;;;18.35;79.29;98457.34;5107081;27;20641;-83
2021/09/24 08:13:49;;;;;;;11.97;10.03;;;18.20;96.00;;;18.66;79.08;98470.16;5127916;27;20692;-83
2021/09/24 08:16:18;;;;;;;13.50;9.47;;;18.40;95.60;;;18.94;78.05;98475.31;5127516;27;20717;-83
2021/09/24 08:18:47;;;;;;;13.10;9.77;;;18.70;95.50;;;19.30;79.64;98467.34;5126003;27;21184;-83
2021/09/24 08:21:16;;;;;;;10.73;8.80;;;19.00;96.00;;;19.71;78.44;98466.75;5114530;27;20688;-83
2021/09/24 08:23:45;;;;;;;11.60;8.50;;;19.40;95.80;;;19.92;76.83;98470.78;5127469;27;20726;-83
2021/09/24 08:26:14;;;;;;;12.27;9.20;;;19.60;94.50;;;19.66;76.12;98464.56;5131235;27;20665;-83
2021/09/24 08:28:42;;;;;;;11.27;8.70;;;19.50;93.50;;;19.81;77.18;98470.97;5124391;27;20721;-83
2021/09/24 08:31:12;;;;;;;10.50;8.90;;;19.60;94.10;;;20.23;76.07;98472.03;5104039;27;20637;-83
2021/09/24 08:33:42;;;;;;;12.30;8.80;;;19.90;94.40;;;20.51;76.29;98472.53;5127518;27;20840;-83
2021/09/24 08:36:11;;;;;;;10.87;8.23;;;20.20;94.00;;;20.81;75.53;98472.09;5103355;27;20683;-83
2021/09/24 08:38:39;;;;;;;11.13;9.33;;;20.50;92.90;;;21.01;73.78;98473.50;5114587;27;20621;-83
2021/09/24 08:41:08;;;;;;;13.10;8.80;;;20.70;92.70;;;21.05;74.12;98469.50;5128466;27;20630;-83
2021/09/24 08:43:37;;;;;;;9.77;8.07;;;20.80;92.10;;;21.15;74.71;98465.75;5099824;27;20997;-83
2021/09/24 08:46:05;;;;;;;10.83;7.80;;;20.90;92.40;;;21.33;73.62;98463.81;5108450;27;20701;-83
2021/09/24 08:48:36;;;;;;;12.43;8.00;;;21.10;92.00;;;21.47;72.79;98466.72;5126401;27;20668;-83
2021/09/24 08:51:05;;;;;;;9.70;7.90;;;21.20;91.50;;;21.57;72.26;98469.22;5123223;27;20630;-83
2021/09/24 08:53:33;;;;;;;14.10;11.60;;;21.30;91.60;;;21.62;71.46;98470.41;5126839;27;20628;-83
2021/09/24 08:56:02;;;;;;;11.07;8.57;;;21.40;90.30;;;21.49;72.02;98474.53;5106444;27;20634;-83
2021/09/24 08:58:32;;;;;;;11.47;8.33;;;21.30;90.70;;;21.31;72.29;98471.94;5120317;27;20682;-83
2021/09/24 09:01:02;;;;;;;10.10;8.83;;;21.20;90.60;;;21.21;72.95;98465.09;5108167;27;20673;-83
2021/09/24 09:03:41;;;;;;;11.23;8.60;;;21.10;90.90;;;21.25;73.83;98463.81;5125975;27;20634;-83
2021/09/24 09:06:14;;;;;;;9.83;8.80;;;21.10;91.20;;;21.24;73.25;98466.63;5122755;27;20678;-84
2021/09/24 09:08:43;;;;;;;10.03;8.60;;;21.10;90.60;;;21.11;73.67;98468.88;5121268;27;20983;-83
2021/09/24 09:11:17;;;;;;;10.00;8.40;;;21.00;90.60;;;20.98;73.33;98469.34;5114526;27;20695;-83
2021/09/24 09:13:50;;;;;;;11.93;8.80;;;20.90;90.30;;;20.82;73.15;98463.13;5097985;27;20629;-84
2021/09/24 09:16:23;;;;;;;9.00;7.90;;;20.80;90.10;;;20.75;72.80;98466.56;5123817;27;20634;-84
2021/09/24 09:19:07;;;;;;;8.60;7.70;;;20.70;90.50;;;20.68;74.34;98460.25;5126517;27;20621;-84
2021/09/24 09:21:42;;;;;;;10.13;7.93;;;20.60;90.80;;;20.66;75.19;98465.69;5129852;27;20644;-83
2021/09/24 09:24:20;;;;;;;12.87;9.00;;;20.60;91.30;;;20.61;75.60;98470.63;5122029;27;20663;-83
2021/09/24 09:26:49;;;;;;;9.30;8.03;;;20.50;91.20;;;20.56;75.28;98464.13;5128113;27;20749;-83
2021/09/24 09:29:17;;;;;;;10.10;9.03;;;20.50;91.00;;;20.53;74.74;98462.59;5118934;27;21562;-83
2021/09/24 09:32:01;;;;;;;12.07;9.27;;;20.40;90.80;;;20.54;74.25;98464.28;5128170;27;20653;-83
2021/09/24 09:34:36;;;;;;;9.57;8.57;;;20.40;90.70;;;20.60;74.65;98463.66;5126902;27;20668;-83
2021/09/24 09:37:16;;;;;;;12.87;8.10;;;20.40;90.90;;;20.65;74.85;98468.50;5111668;28;21028;-83
2021/09/24 09:39:45;;;;;;;11.33;8.60;;;20.50;91.00;;;20.66;74.71;98464.81;5105884;27;20638;-83
2021/09/24 09:42:15;;;;;;;13.57;9.60;;;20.50;91.20;;;20.68;74.20;98460.25;5111420;28;21131;-83
2021/09/24 09:44:45;;;;;;;9.77;8.13;;;20.50;90.90;;;20.67;74.43;98459.41;5123667;27;20625;-83
2021/09/24 09:47:32;;;;;;;11.27;8.83;;;20.50;91.10;;;20.74;75.00;98464.94;5105470;28;20675;-83
2021/09/24 09:50:10;;;;;;;9.57;8.57;;;20.60;91.30;;;20.73;73.91;98458.78;5121511;27;20625;-83
2021/09/24 09:52:58;;;;;;;10.03;8.90;;;20.60;90.60;;;20.76;73.55;98458.44;5124758;27;20652;-83
2021/09/24 09:55:29;;;;;;;10.27;8.30;;;20.60;90.80;;;20.78;74.11;98445.03;5092386;27;20656;-83
2021/09/24 09:58:02;;;;;;;11.13;9.23;;;20.60;90.60;;;21.18;75.36;98448.69;5107772;28;20653;-83
2021/09/24 10:00:33;;;;;;;12.23;8.60;;;20.90;92.40;;;21.19;72.84;98443.22;5109223;27;20629;-83
2021/09/24 10:03:08;;;;;;;12.87;8.00;;;21.00;90.40;;;21.33;74.19;98446.09;5107456;27;20613;-83
2021/09/24 10:05:42;;;;;;;10.03;8.03;;;21.10;91.10;;;21.44;74.18;98435.16;5113278;27;20695;-83
2021/09/24 10:08:22;;;;;;;9.50;7.67;;;21.20;91.10;;;21.69;73.27;98439.50;5123337;27;21219;-83
2021/09/24 10:11:01;;;;;;;8.60;7.10;;;21.40;91.00;;;21.92;73.71;98440.50;5090752;27;20638;-83
2021/09/24 10:13:34;;;;;;;8.23;6.77;;;21.60;91.20;;;22.03;71.51;98440.19;5115528;27;20660;-83
2021/09/24 10:16:04;;;;;;;8.53;6.50;;;21.80;89.80;;;22.01;72.76;98436.84;5104397;28;20698;-83
2021/09/24 10:18:34;;;;;;;7.60;6.50;;;21.80;90.50;;;22.17;72.83;98435.03;5091656;28;20672;-83
2021/09/24 10:21:04;;;;;;;10.13;7.20;;;21.90;90.60;;;22.35;71.84;98433.84;5117843;28;20625;-83
2021/09/24 10:23:32;;;;;;;9.07;6.50;;;22.10;90.00;;;22.48;72.79;98431.53;5117359;28;20633;-83
2021/09/24 10:26:08;;;;;;;10.80;6.10;;;22.20;91.00;;;22.60;71.94;98429.34;5109747;28;20654;-83